createdAt,value
2018-04-22T00:01:00.039Z,18.33
2018-04-22T00:03:29.416Z,19.17
2018-04-22T00:05:58.637Z,20.20
2018-04-22T00:08:28.187Z,22.20
2018-04-22T00:10:57.698Z,22.93
2018-04-22T00:13:27.266Z,25.63
2018-04-22T00:15:56.500Z,25.57
2018-04-22T00:18:26.006Z,25.07
2018-04-22T00:20:55.332Z,25.60
2018-04-22T00:23:25.287Z,26.37
2018-04-22T00:25:54.691Z,28.20
2018-04-22T00:28:23.935Z,27.60
2018-04-22T00:30:53.236Z,26.63
2018-04-22T00:33:22.535Z,28.83
2018-04-22T00:36:18.178Z,26.27
2018-04-22T00:38:47.781Z,29.73
2018-04-22T00:41:17.213Z,26.90
2018-04-22T00:47:07.699Z,26.73
2018-04-22T00:49:37.140Z,26.43
2018-04-22T00:52:06.754Z,28.23
2018-04-22T00:55:00.264Z,25.83
2018-04-22T00:57:29.682Z,27.90
2018-04-22T00:59:59.010Z,26.17
2018-04-22T01:02:29.001Z,22.70
2018-04-22T01:08:19.802Z,25.07
2018-04-22T01:10:49.278Z,24.53
2018-04-22T01:13:21.022Z,23.30
2018-04-22T01:15:56.748Z,23.53
2018-04-22T01:18:27.333Z,26.80
2018-04-22T01:23:33.400Z,27.43
2018-04-22T01:26:02.989Z,24.93
2018-04-22T01:28:36.333Z,26.43
2018-04-22T01:31:07.491Z,25.53
2018-04-22T01:37:06.595Z,28.40
2018-04-22T01:39:35.967Z,33.67
2018-04-22T01:42:05.278Z,27.30
2018-04-22T01:44:34.880Z,28.07
2018-04-22T01:47:04.745Z,28.67
2018-04-22T01:49:34.115Z,30.13
2018-04-22T01:52:08.807Z,30.70
2018-04-22T01:54:38.208Z,30.47
2018-04-22T01:57:08.810Z,31.97
2018-04-22T01:59:40.501Z,31.97
2018-04-22T02:02:10.234Z,33.33
2018-04-22T02:04:39.696Z,31.73
2018-04-22T02:07:09.239Z,39.53
2018-04-22T02:09:38.696Z,31.50
2018-04-22T02:12:08.398Z,32.57
2018-04-22T02:14:43.912Z,33.90
2018-04-22T02:17:13.703Z,33.70
2018-04-22T02:19:43.015Z,18.87
2018-04-22T02:22:12.600Z,18.10
2018-04-22T02:24:42.088Z,13.47
2018-04-22T02:27:11.530Z,12.33
2018-04-22T02:29:40.873Z,12.77
2018-04-22T02:32:10.825Z,14.57
2018-04-22T02:34:43.010Z,17.20
2018-04-22T02:37:12.481Z,18.53
2018-04-22T02:39:42.023Z,18.83
2018-04-22T02:42:14.541Z,18.17
2018-04-22T02:44:45.631Z,19.80
2018-04-22T02:47:15.197Z,19.00
2018-04-22T02:49:44.677Z,19.27
2018-04-22T02:52:13.988Z,18.80
2018-04-22T02:54:43.358Z,17.83
2018-04-22T02:57:12.655Z,17.97
2018-04-22T02:59:41.953Z,16.70
2018-04-22T03:02:11.317Z,15.53
2018-04-22T03:04:40.622Z,14.70
2018-04-22T03:07:09.918Z,12.10
2018-04-22T03:09:39.356Z,12.67
2018-04-22T03:12:08.717Z,11.93
2018-04-22T03:14:38.092Z,10.67
2018-04-22T03:20:29.876Z,9.53
2018-04-22T03:22:59.474Z,9.17
2018-04-22T03:25:29.186Z,9.17
2018-04-22T03:27:59.597Z,9.37
2018-04-22T03:30:28.979Z,9.80
2018-04-22T03:32:58.455Z,9.07
2018-04-22T03:35:28.962Z,9.63
2018-04-22T03:37:58.411Z,8.93
2018-04-22T03:40:28.408Z,10.70
2018-04-22T03:42:58.674Z,9.97
2018-04-22T03:45:28.110Z,9.73
2018-04-22T03:47:57.538Z,9.33
2018-04-22T03:50:27.068Z,9.40
2018-04-22T03:52:56.450Z,9.43
2018-04-22T03:55:25.877Z,9.13
2018-04-22T03:57:55.287Z,10.00
2018-04-22T04:00:24.739Z,9.87
2018-04-22T04:02:54.234Z,8.73
2018-04-22T04:05:23.671Z,9.50
2018-04-22T04:07:53.166Z,10.10
2018-04-22T04:10:22.531Z,9.47
2018-04-22T04:12:52.053Z,11.33
2018-04-22T04:15:21.382Z,12.83
2018-04-22T04:18:10.981Z,11.67
2018-04-22T04:20:51.675Z,11.00
2018-04-22T04:23:42.477Z,9.13
2018-04-22T04:26:35.174Z,9.67
2018-04-22T04:29:04.655Z,8.93
2018-04-22T04:31:34.192Z,9.97
2018-04-22T04:34:03.712Z,9.10
2018-04-22T04:36:33.165Z,9.53
2018-04-22T04:39:02.618Z,9.43
2018-04-22T04:41:31.990Z,10.67
2018-04-22T04:44:01.662Z,11.20
2018-04-22T04:46:31.044Z,10.57
2018-04-22T04:49:00.520Z,9.87
2018-04-22T04:51:30.038Z,10.80
2018-04-22T04:53:59.397Z,11.90
2018-04-22T04:56:29.004Z,11.20
2018-04-22T04:58:58.499Z,13.20
2018-04-22T05:01:27.972Z,14.03
2018-04-22T05:03:57.368Z,20.63
2018-04-22T05:06:34.432Z,21.33
2018-04-22T05:09:07.547Z,16.97
2018-04-22T05:11:37.237Z,14.70
2018-04-22T05:14:09.388Z,12.33
2018-04-22T05:16:39.086Z,12.57
2018-04-22T05:19:11.137Z,12.57
2018-04-22T05:21:40.597Z,10.83
2018-04-22T05:24:12.408Z,13.60
2018-04-22T05:26:44.380Z,18.87
2018-04-22T05:29:13.707Z,20.93
2018-04-22T05:31:43.124Z,17.37
2018-04-22T05:34:12.494Z,21.37
2018-04-22T05:36:41.941Z,21.80
2018-04-22T05:39:11.470Z,22.77
2018-04-22T05:45:02.602Z,19.97
2018-04-22T05:47:31.889Z,24.30
2018-04-22T05:50:01.291Z,19.57
2018-04-22T05:52:30.632Z,17.30
2018-04-22T05:55:00.071Z,15.87
2018-04-22T05:57:29.367Z,16.67
2018-04-22T05:59:58.784Z,15.67
2018-04-22T06:02:28.850Z,16.87
2018-04-22T06:04:58.171Z,18.73
2018-04-22T06:07:27.598Z,21.33
2018-04-22T06:09:56.880Z,22.03
2018-04-22T06:12:26.264Z,21.53
2018-04-22T06:14:55.590Z,22.73
2018-04-22T06:31:17.468Z,19.63
2018-04-22T06:33:46.879Z,20.07
2018-04-22T06:46:05.829Z,13.73
2018-04-22T06:48:35.347Z,15.17
2018-04-22T06:51:04.854Z,13.30
2018-04-22T06:53:34.139Z,12.80
2018-04-22T06:56:03.415Z,12.83
2018-04-22T07:52:04.592Z,10.03
2018-04-22T07:54:34.152Z,8.70
2018-04-22T07:57:03.727Z,9.70
2018-04-22T07:59:33.322Z,8.67
2018-04-22T08:02:02.901Z,10.03
2018-04-22T08:04:32.514Z,10.43
2018-04-22T08:07:02.171Z,10.13
2018-04-22T08:09:31.655Z,9.07
2018-04-22T08:12:01.157Z,10.47
2018-04-22T08:14:30.897Z,11.57
2018-04-22T08:17:00.409Z,17.43
2018-04-22T08:19:29.972Z,18.87
2018-04-22T08:21:59.553Z,15.20
2018-04-22T08:24:29.070Z,15.13
2018-04-22T08:26:59.533Z,14.80
2018-04-22T08:29:29.037Z,14.30
2018-04-22T08:31:58.532Z,20.30
2018-04-22T08:34:28.108Z,20.47
2018-04-22T08:36:57.615Z,15.87
2018-04-22T08:39:27.170Z,18.63
2018-04-22T08:41:57.533Z,18.77
2018-04-22T08:47:48.241Z,16.90
2018-04-22T08:50:17.821Z,16.03
2018-04-22T08:52:47.444Z,13.67
2018-04-22T08:55:17.094Z,13.00
2018-04-22T08:57:46.657Z,13.67
2018-04-22T09:03:37.190Z,15.93
2018-04-22T09:06:06.407Z,15.97
2018-04-22T09:08:35.681Z,16.80
2018-04-22T09:11:04.948Z,15.10
2018-04-22T09:13:34.927Z,15.33
2018-04-22T09:16:04.163Z,14.73
2018-04-22T09:18:33.411Z,14.57
2018-04-22T09:21:02.657Z,17.83
2018-04-22T09:23:31.946Z,15.40
2018-04-22T09:26:01.299Z,15.63
2018-04-22T09:28:30.557Z,14.97
2018-04-22T09:30:59.832Z,15.87
2018-04-22T09:33:29.131Z,16.73
2018-04-22T09:35:58.385Z,22.17
2018-04-22T09:38:27.679Z,21.40
2018-04-22T09:40:57.067Z,21.20
2018-04-22T09:43:26.270Z,23.83
2018-04-22T09:46:43.718Z,20.27
2018-04-22T09:52:13.076Z,17.63
2018-04-22T09:54:42.621Z,17.53
2018-04-22T09:57:12.159Z,17.47
2018-04-22T10:03:08.486Z,16.30
2018-04-22T10:05:42.990Z,16.70
2018-04-22T10:08:12.330Z,16.73
2018-04-22T10:10:41.609Z,17.07
2018-04-22T10:13:10.884Z,16.63
2018-04-22T10:15:41.071Z,15.43
2018-04-22T10:18:10.332Z,16.47
2018-04-22T10:20:39.645Z,16.43
2018-04-22T10:23:09.011Z,16.13
2018-04-22T10:25:39.105Z,16.57
2018-04-22T10:28:08.389Z,15.90
2018-04-22T10:30:37.721Z,16.90
2018-04-22T10:33:07.018Z,15.77
2018-04-22T10:35:36.369Z,16.57
2018-04-22T10:38:05.975Z,16.10
2018-04-22T10:40:35.282Z,17.00
2018-04-22T10:43:05.330Z,14.80
2018-04-22T10:45:34.673Z,17.37
2018-04-22T10:48:04.741Z,16.97
2018-04-22T10:50:34.050Z,15.70
2018-04-22T10:53:03.414Z,15.47
2018-04-22T10:55:32.696Z,16.27
2018-04-22T10:58:02.842Z,15.90
2018-04-22T11:00:32.196Z,19.77
2018-04-22T11:03:01.506Z,21.33
2018-04-22T11:05:30.869Z,23.97
2018-04-22T11:08:00.137Z,25.07
2018-04-22T11:10:29.397Z,28.53
2018-04-22T11:12:58.757Z,25.23
2018-04-22T11:15:28.061Z,22.67
2018-04-22T11:17:57.384Z,21.90
2018-04-22T11:20:26.715Z,19.87
2018-04-22T11:22:56.042Z,20.10
2018-04-22T11:25:25.357Z,18.50
2018-04-22T11:27:54.694Z,18.87
2018-04-22T11:30:24.046Z,18.00
2018-04-22T11:32:53.367Z,18.67
2018-04-22T11:35:22.755Z,18.73
2018-04-22T11:37:52.024Z,18.10
2018-04-22T11:40:22.053Z,18.27
2018-04-22T11:42:51.423Z,20.07
2018-04-22T11:45:20.738Z,19.50
2018-04-22T11:47:50.087Z,19.47
2018-04-22T11:50:19.450Z,18.10
2018-04-22T11:52:49.514Z,20.60
2018-04-22T11:55:18.894Z,20.70
2018-04-22T11:57:48.954Z,21.30
2018-04-22T12:00:18.411Z,22.63
2018-04-22T12:02:47.748Z,23.47
2018-04-22T12:05:17.033Z,23.53
2018-04-22T12:07:46.312Z,24.23
2018-04-22T12:10:15.672Z,24.40
2018-04-22T12:12:44.939Z,25.27
2018-04-22T12:15:26.672Z,23.07
2018-04-22T12:17:56.040Z,24.33
2018-04-22T12:20:25.399Z,19.80
2018-04-22T12:22:54.708Z,22.33
2018-04-22T12:28:45.869Z,53.10
2018-04-22T12:31:15.188Z,40.17
2018-04-22T12:33:44.576Z,32.40
2018-04-22T12:36:13.955Z,21.90
2018-04-22T12:38:43.274Z,21.53
2018-04-22T12:41:13.878Z,24.27
2018-04-22T12:43:43.795Z,19.97
2018-04-22T12:46:14.468Z,21.97
2018-04-22T12:48:46.811Z,24.50
2018-04-22T12:54:47.427Z,17.33
2018-04-22T12:57:16.773Z,19.90
2018-04-22T12:59:46.081Z,15.83
2018-04-22T13:02:16.711Z,15.27
2018-04-22T13:04:46.456Z,15.40
2018-04-22T13:07:15.876Z,15.90
2018-04-22T13:09:45.513Z,14.40
2018-04-22T13:12:17.647Z,16.57
2018-04-22T13:14:49.544Z,16.33
2018-04-22T13:17:18.984Z,17.70
2018-04-22T13:23:52.968Z,22.93
2018-04-22T13:26:23.546Z,18.37
2018-04-22T13:28:52.939Z,15.47
2018-04-22T13:31:22.350Z,16.63
2018-04-22T13:33:51.678Z,15.60
2018-04-22T13:36:21.064Z,18.50
2018-04-22T13:38:51.185Z,17.97
2018-04-22T13:41:20.492Z,18.53
2018-04-22T13:43:49.860Z,23.20
2018-04-22T13:46:19.161Z,19.70
2018-04-22T13:48:48.522Z,15.63
2018-04-22T13:51:17.884Z,16.97
2018-04-22T13:53:47.189Z,16.57
2018-04-22T13:56:16.496Z,15.53
2018-04-22T13:58:45.845Z,16.27
2018-04-22T14:01:15.156Z,17.37
2018-04-22T14:03:45.318Z,17.73
2018-04-22T14:06:14.792Z,16.23
2018-04-22T14:08:46.159Z,15.33
2018-04-22T14:11:15.560Z,14.60
2018-04-22T14:13:44.905Z,14.27
2018-04-22T14:16:14.443Z,13.77
2018-04-22T14:18:43.881Z,13.73
2018-04-22T14:21:13.172Z,14.27
2018-04-22T14:23:42.496Z,14.50
2018-04-22T14:26:12.236Z,13.60
2018-04-22T14:28:42.005Z,14.13
2018-04-22T14:31:11.333Z,13.43
2018-04-22T14:33:40.704Z,14.27
2018-04-22T14:36:10.074Z,16.43
2018-04-22T14:38:43.029Z,15.67
2018-04-22T14:41:12.522Z,15.77
2018-04-22T14:43:47.616Z,15.83
2018-04-22T14:46:16.904Z,17.37
2018-04-22T14:48:58.169Z,16.63
2018-04-22T14:51:33.188Z,16.70
2018-04-22T14:54:02.932Z,17.87
2018-04-22T14:56:33.329Z,16.93
2018-04-22T14:59:02.811Z,18.90
2018-04-22T15:01:33.088Z,17.03
2018-04-22T15:07:33.803Z,17.07
2018-04-22T15:10:03.144Z,18.03
2018-04-22T15:12:33.391Z,17.63
2018-04-22T15:15:02.781Z,16.83
2018-04-22T15:17:32.960Z,16.50
2018-04-22T15:20:02.385Z,16.42
2018-04-22T15:22:32.106Z,16.25
2018-04-22T15:25:02.330Z,16.58
2018-04-22T15:27:31.709Z,17.77
2018-04-22T15:30:01.113Z,17.55
2018-04-22T15:32:30.493Z,17.60
2018-04-22T15:34:59.900Z,18.60
2018-04-22T15:41:00.556Z,17.15
2018-04-22T15:43:29.883Z,17.83
2018-04-22T15:45:59.267Z,18.27
2018-04-22T15:51:49.113Z,17.73
2018-04-22T15:54:18.569Z,17.00
2018-04-22T15:56:48.018Z,18.12
2018-04-22T15:59:21.394Z,19.85
2018-04-22T16:05:11.568Z,18.55
2018-04-22T16:07:40.838Z,19.15
2018-04-22T16:10:10.111Z,20.90
2018-04-22T16:12:40.829Z,20.08
2018-04-22T16:15:10.332Z,19.42
2018-04-22T16:17:39.597Z,20.95
2018-04-22T16:20:10.037Z,18.48
2018-04-22T16:22:39.339Z,20.00
2018-04-22T16:25:08.883Z,20.17
2018-04-22T16:27:39.308Z,21.42
2018-04-22T16:30:10.871Z,22.27
2018-04-22T16:32:40.903Z,22.10
2018-04-22T16:35:10.224Z,21.45
2018-04-22T16:37:39.493Z,20.15
2018-04-22T16:40:13.589Z,22.98
2018-04-22T16:42:44.164Z,22.30
2018-04-22T16:45:13.520Z,22.23
2018-04-22T16:47:51.497Z,22.65
2018-04-22T16:50:21.755Z,21.85
2018-04-22T16:52:51.835Z,22.67
2018-04-22T16:55:21.267Z,21.20
2018-04-22T16:57:50.524Z,21.75
2018-04-22T17:00:19.810Z,20.88
2018-04-22T17:02:50.714Z,21.40
2018-04-22T17:05:20.029Z,19.92
2018-04-22T17:07:49.389Z,20.85
2018-04-22T17:10:23.334Z,21.15
2018-04-22T17:12:52.639Z,21.15
2018-04-22T17:15:21.907Z,20.02
2018-04-22T17:17:51.185Z,21.60
2018-04-22T17:20:20.462Z,22.10
2018-04-22T17:22:50.555Z,22.42
2018-04-22T17:25:19.831Z,21.25
2018-04-22T17:27:49.095Z,21.35
2018-04-22T17:30:18.420Z,19.05
2018-04-22T17:32:48.630Z,21.15
2018-04-22T17:35:26.898Z,20.45
2018-04-22T17:37:59.511Z,22.02
2018-04-22T17:40:28.859Z,20.17
2018-04-22T17:42:59.079Z,18.77
2018-04-22T17:45:29.399Z,19.83
2018-04-22T17:47:58.712Z,18.40
2018-04-22T17:50:27.981Z,18.60
2018-04-22T17:52:57.541Z,18.37
2018-04-22T17:55:29.066Z,21.40
2018-04-22T17:57:58.564Z,22.52
2018-04-22T18:00:29.567Z,20.42
2018-04-22T18:02:58.957Z,19.67
2018-04-22T18:05:28.709Z,19.05
2018-04-22T18:07:58.826Z,16.27
2018-04-22T18:10:28.454Z,16.27
2018-04-22T18:12:57.747Z,17.70
2018-04-22T18:15:27.761Z,17.67
2018-04-22T18:21:21.170Z,16.50
2018-04-22T18:23:50.759Z,16.75
2018-04-22T18:26:20.540Z,15.20
2018-04-22T18:28:50.109Z,14.75
2018-04-22T18:31:20.468Z,13.40
2018-04-22T18:33:50.103Z,13.30
2018-04-22T18:36:20.165Z,12.07
2018-04-22T18:38:49.785Z,12.85
2018-04-22T18:44:40.685Z,13.88
2018-04-22T18:50:32.667Z,13.35
2018-04-22T18:53:02.082Z,14.43
2018-04-22T18:55:31.603Z,14.25
2018-04-22T18:58:01.366Z,14.40
2018-04-22T19:03:51.604Z,13.38
2018-04-22T19:06:21.082Z,13.52
2018-04-22T19:08:50.459Z,12.70
2018-04-22T19:11:19.937Z,13.30
2018-04-22T19:17:10.984Z,14.23
2018-04-22T19:19:44.563Z,12.77
2018-04-22T19:22:14.955Z,11.75
2018-04-22T19:24:45.402Z,16.12
2018-04-22T19:27:15.031Z,13.80
2018-04-22T19:29:44.915Z,12.02
2018-04-22T19:32:14.492Z,14.63
2018-04-22T19:34:44.314Z,14.23
2018-04-22T19:37:17.812Z,12.95
2018-04-22T19:39:47.590Z,18.95
2018-04-22T19:42:17.333Z,12.55
2018-04-22T19:44:47.797Z,10.50
2018-04-22T19:47:17.674Z,11.27
2018-04-22T19:49:47.335Z,16.58
2018-04-22T19:52:16.963Z,11.30
2018-04-22T19:54:46.591Z,8.07
2018-04-22T20:00:47.359Z,15.32
2018-04-22T20:03:16.775Z,17.33
2018-04-22T20:05:46.177Z,16.00
2018-04-22T20:08:15.546Z,17.60
2018-04-22T20:10:45.206Z,18.77
2018-04-22T20:13:14.568Z,13.13
2018-04-22T20:15:44.092Z,11.73
2018-04-22T20:18:13.480Z,12.85
2018-04-22T20:20:42.907Z,11.57
2018-04-22T20:23:12.366Z,12.30
2018-04-22T20:25:41.782Z,13.20
2018-04-22T20:28:14.693Z,10.93
2018-04-22T20:30:44.119Z,14.75
2018-04-22T20:33:14.136Z,17.20
2018-04-22T20:35:46.440Z,33.30
2018-04-22T20:38:16.024Z,33.30
2018-04-22T20:40:45.480Z,32.55
2018-04-22T20:43:15.249Z,33.28
2018-04-22T20:45:44.639Z,30.65
2018-04-22T20:48:17.071Z,31.83
2018-04-22T20:50:47.043Z,33.92
2018-04-22T20:53:17.340Z,33.97
2018-04-22T20:55:46.796Z,35.87
2018-04-22T20:58:17.455Z,40.67
2018-04-22T21:00:46.855Z,40.63
2018-04-22T21:03:16.290Z,38.67
2018-04-22T21:05:45.646Z,42.03
2018-04-22T21:08:15.861Z,39.30
2018-04-22T21:10:46.632Z,37.53
2018-04-22T21:13:16.953Z,38.33
2018-04-22T21:15:46.349Z,36.70
2018-04-22T21:18:15.793Z,35.57
2018-04-22T21:20:45.172Z,35.07
2018-04-22T21:23:14.652Z,32.90
2018-04-22T21:25:43.997Z,31.67
2018-04-22T21:28:13.478Z,26.03
2018-04-22T21:30:42.850Z,28.10
2018-04-22T21:33:12.291Z,28.30
2018-04-22T21:35:41.633Z,24.30
2018-04-22T21:38:11.149Z,24.57
2018-04-22T21:40:40.457Z,19.30
2018-04-22T21:43:09.914Z,21.40
2018-04-22T21:45:39.279Z,16.33
2018-04-22T21:48:08.683Z,18.10
2018-04-22T21:50:38.256Z,16.60
2018-04-22T21:53:07.776Z,22.73
2018-04-22T21:55:37.094Z,22.67
2018-04-22T21:58:06.511Z,30.03
2018-04-22T22:00:35.897Z,26.30
2018-04-22T22:03:05.376Z,33.23
2018-04-22T22:05:34.701Z,30.83
2018-04-22T22:08:05.249Z,27.90
2018-04-22T22:10:39.986Z,26.70
2018-04-22T22:13:09.501Z,30.37
2018-04-22T22:15:38.830Z,39.30
2018-04-22T22:18:08.760Z,41.00
2018-04-22T22:20:38.727Z,40.03
2018-04-22T22:23:08.172Z,44.03
2018-04-22T22:25:37.669Z,42.67
2018-04-22T22:28:07.143Z,43.87
2018-04-22T22:30:36.505Z,44.93
2018-04-22T22:33:06.248Z,42.70
2018-04-22T22:35:36.572Z,50.33
2018-04-22T22:38:05.929Z,53.53
2018-04-22T22:40:35.368Z,59.03
2018-04-22T22:43:04.716Z,57.80
2018-04-22T22:45:34.146Z,59.17
2018-04-22T22:48:03.472Z,57.73
2018-04-22T22:50:32.996Z,54.93
2018-04-22T22:53:02.337Z,54.93
2018-04-22T22:55:31.755Z,53.73
2018-04-22T22:58:01.118Z,57.10
2018-04-22T23:00:30.717Z,55.47
2018-04-22T23:03:00.023Z,50.97
2018-04-22T23:05:29.516Z,53.13
2018-04-22T23:07:58.893Z,51.40
2018-04-22T23:10:28.514Z,49.03
2018-04-22T23:12:57.993Z,45.40
2018-04-22T23:15:27.493Z,42.67
2018-04-22T23:17:57.737Z,48.17
2018-04-22T23:20:27.519Z,44.83
2018-04-22T23:26:29.532Z,41.50
2018-04-22T23:28:58.967Z,42.37
2018-04-22T23:31:28.298Z,45.43
2018-04-22T23:33:57.662Z,47.00
2018-04-22T23:36:27.070Z,49.63
2018-04-22T23:39:26.349Z,51.80
2018-04-22T23:41:55.779Z,52.80
2018-04-22T23:44:25.201Z,56.67
2018-04-22T23:46:54.822Z,56.77
2018-04-22T23:49:24.260Z,57.63
2018-04-22T23:51:53.675Z,55.20
2018-04-22T23:54:23.158Z,54.77
2018-04-22T23:56:52.517Z,59.97
2018-04-22T23:59:22.044Z,58.53
